createdAt,value
2023-12-27T00:01:02.857Z,60.10
2023-12-27T00:03:32.710Z,60.50
2023-12-27T00:06:02.749Z,61.00
2023-12-27T00:08:32.666Z,60.80
2023-12-27T00:11:02.461Z,60.90
2023-12-27T00:13:32.276Z,60.60
2023-12-27T00:16:04.744Z,60.90
2023-12-27T00:18:34.660Z,61.10
2023-12-27T00:21:04.586Z,60.80
2023-12-27T00:23:34.386Z,60.80
2023-12-27T00:26:04.210Z,60.70
2023-12-27T00:28:34.017Z,60.80
2023-12-27T00:31:06.740Z,61.00
2023-12-27T00:33:36.932Z,61.10
2023-12-27T00:36:08.032Z,61.40
2023-12-27T00:38:39.056Z,61.00
2023-12-27T00:41:10.593Z,61.10
2023-12-27T00:43:40.387Z,61.10
2023-12-27T00:46:12.879Z,61.10
2023-12-27T00:48:42.733Z,61.00
2023-12-27T00:51:22.300Z,61.20
2023-12-27T00:53:52.752Z,60.90
2023-12-27T00:56:22.641Z,60.70
2023-12-27T00:58:52.460Z,61.10
2023-12-27T01:01:24.969Z,60.90
2023-12-27T01:03:55.467Z,61.10
2023-12-27T01:06:25.452Z,61.60
2023-12-27T01:08:55.344Z,61.50
2023-12-27T01:11:25.185Z,61.10
2023-12-27T01:13:54.974Z,61.20
2023-12-27T01:16:27.800Z,61.10
2023-12-27T01:18:57.695Z,60.90
2023-12-27T01:21:27.594Z,61.10
2023-12-27T01:23:57.452Z,61.10
2023-12-27T01:26:27.246Z,61.40
2023-12-27T01:28:57.049Z,61.00
2023-12-27T01:31:29.522Z,61.30
2023-12-27T01:34:08.207Z,60.90
2023-12-27T01:36:42.227Z,61.80
2023-12-27T01:39:12.266Z,61.70
2023-12-27T01:41:42.274Z,61.50
2023-12-27T01:44:12.289Z,62.20
2023-12-27T01:46:44.876Z,61.70
2023-12-27T01:49:14.822Z,62.30
2023-12-27T01:51:44.911Z,62.20
2023-12-27T01:54:15.959Z,61.90
2023-12-27T01:56:47.580Z,62.60
2023-12-27T01:59:17.656Z,62.20
2023-12-27T02:01:50.663Z,61.90
2023-12-27T02:04:20.544Z,62.00
2023-12-27T02:06:51.174Z,62.10
2023-12-27T02:09:21.850Z,62.40
2023-12-27T02:11:51.731Z,62.30
2023-12-27T02:14:21.603Z,61.40
2023-12-27T02:16:54.969Z,61.40
2023-12-27T02:19:27.582Z,61.70
2023-12-27T02:21:58.052Z,62.40
2023-12-27T02:24:38.321Z,62.20
2023-12-27T02:27:08.358Z,61.60
2023-12-27T02:29:39.174Z,61.70
2023-12-27T02:32:09.816Z,62.00
2023-12-27T02:34:39.984Z,62.30
2023-12-27T02:37:09.863Z,62.00
2023-12-27T02:39:42.288Z,61.70
2023-12-27T02:42:12.150Z,62.10
2023-12-27T02:44:42.664Z,62.60
2023-12-27T02:47:12.478Z,62.90
2023-12-27T02:49:42.564Z,62.30
2023-12-27T02:52:12.410Z,62.60
2023-12-27T02:54:44.915Z,62.40
2023-12-27T02:57:14.756Z,63.20
2023-12-27T02:59:44.634Z,62.70
2023-12-27T03:02:14.461Z,62.60
2023-12-27T03:04:44.291Z,62.50
2023-12-27T03:07:15.173Z,62.20
2023-12-27T03:09:47.576Z,63.30
2023-12-27T03:12:17.432Z,62.80
2023-12-27T03:14:47.213Z,62.10
2023-12-27T03:17:17.445Z,63.30
2023-12-27T03:19:47.302Z,62.90
2023-12-27T03:22:17.131Z,63.30
2023-12-27T03:24:49.627Z,62.90
2023-12-27T03:27:19.551Z,63.40
2023-12-27T03:29:49.374Z,63.10
2023-12-27T03:32:19.192Z,64.30
2023-12-27T03:34:49.022Z,63.50
2023-12-27T03:37:18.889Z,63.90
2023-12-27T03:39:52.664Z,63.10
2023-12-27T03:42:23.231Z,63.10
2023-12-27T03:44:54.522Z,63.80
2023-12-27T03:47:24.488Z,64.60
2023-12-27T03:49:54.420Z,63.80
2023-12-27T03:52:24.905Z,63.80
2023-12-27T03:54:57.336Z,64.40
2023-12-27T03:57:27.311Z,64.50
2023-12-27T03:59:57.158Z,64.70
2023-12-27T04:02:27.226Z,63.70
2023-12-27T04:04:57.026Z,63.60
2023-12-27T04:07:26.880Z,64.60
2023-12-27T04:09:59.336Z,63.70
2023-12-27T04:12:29.213Z,64.20
2023-12-27T04:14:59.102Z,63.70
2023-12-27T04:17:29.408Z,62.80
2023-12-27T04:19:59.301Z,62.90
2023-12-27T04:22:29.212Z,62.00
2023-12-27T04:25:04.434Z,63.00
2023-12-27T04:27:34.195Z,63.00
2023-12-27T04:30:04.489Z,62.60
2023-12-27T04:32:34.486Z,63.10
2023-12-27T04:35:04.455Z,62.80
2023-12-27T04:37:34.435Z,62.60
2023-12-27T04:40:07.850Z,62.80
2023-12-27T04:42:37.840Z,62.80
2023-12-27T04:45:09.204Z,62.80
2023-12-27T04:47:39.117Z,63.00
2023-12-27T04:50:10.662Z,63.10
2023-12-27T04:52:40.612Z,62.30
2023-12-27T04:55:13.511Z,62.30
2023-12-27T04:57:43.363Z,62.80
2023-12-27T05:00:13.917Z,62.90
2023-12-27T05:02:43.789Z,63.80
2023-12-27T05:05:13.585Z,63.90
2023-12-27T05:07:43.449Z,63.90
2023-12-27T05:10:15.901Z,63.50
2023-12-27T05:12:45.768Z,63.30
2023-12-27T05:15:15.590Z,63.70
2023-12-27T05:17:45.514Z,62.30
2023-12-27T05:20:15.532Z,62.80
2023-12-27T05:22:45.967Z,63.10
2023-12-27T05:25:18.497Z,63.60
2023-12-27T05:27:48.312Z,63.20
2023-12-27T05:30:18.360Z,63.00
2023-12-27T05:32:48.309Z,62.30
2023-12-27T05:35:18.250Z,62.70
2023-12-27T05:37:48.096Z,62.50
2023-12-27T05:40:20.604Z,62.50
2023-12-27T05:42:50.385Z,63.00
2023-12-27T05:45:20.311Z,62.00
2023-12-27T05:47:50.225Z,62.00
2023-12-27T05:50:21.012Z,62.30
2023-12-27T05:52:51.438Z,62.10
2023-12-27T05:55:24.444Z,61.60
2023-12-27T05:57:54.312Z,61.90
2023-12-27T06:00:24.438Z,61.50
2023-12-27T06:02:54.303Z,61.90
2023-12-27T06:05:24.798Z,62.30
2023-12-27T06:07:54.871Z,61.30
2023-12-27T06:10:27.766Z,61.20
2023-12-27T06:12:58.082Z,61.00
2023-12-27T06:15:27.902Z,61.80
2023-12-27T06:17:58.084Z,62.20
2023-12-27T06:20:28.058Z,62.00
2023-12-27T06:22:57.877Z,61.80
2023-12-27T06:25:30.284Z,61.30
2023-12-27T06:28:00.450Z,61.20
2023-12-27T06:30:30.904Z,61.60
2023-12-27T06:33:00.857Z,61.50
2023-12-27T06:35:30.715Z,62.00
2023-12-27T06:38:00.870Z,63.10
2023-12-27T06:40:33.520Z,62.50
2023-12-27T06:43:03.964Z,62.10
2023-12-27T06:45:33.887Z,62.50
2023-12-27T06:48:04.044Z,61.90
2023-12-27T06:50:33.972Z,62.90
2023-12-27T06:53:03.833Z,62.10
2023-12-27T06:55:36.247Z,62.20
2023-12-27T06:58:06.287Z,62.60
2023-12-27T07:00:36.864Z,62.40
2023-12-27T07:03:07.329Z,62.00
2023-12-27T07:05:38.110Z,62.90
2023-12-27T07:08:08.377Z,61.90
2023-12-27T07:10:40.769Z,61.80
2023-12-27T07:13:10.683Z,62.10
2023-12-27T07:15:40.621Z,62.20
2023-12-27T07:18:10.749Z,62.00
2023-12-27T07:20:40.962Z,62.30
2023-12-27T07:23:11.783Z,62.50
2023-12-27T07:25:44.206Z,61.60
2023-12-27T07:28:14.089Z,61.40
2023-12-27T07:30:43.971Z,61.80
2023-12-27T07:33:17.254Z,61.50
2023-12-27T07:35:47.438Z,61.40
2023-12-27T07:38:17.415Z,61.30
2023-12-27T07:40:49.801Z,61.80
2023-12-27T07:43:23.474Z,61.40
2023-12-27T07:45:53.389Z,61.70
2023-12-27T07:48:24.291Z,62.20
2023-12-27T07:50:54.270Z,61.30
2023-12-27T07:53:24.118Z,61.80
2023-12-27T07:55:56.515Z,62.90
2023-12-27T07:58:26.343Z,62.00
2023-12-27T08:00:57.093Z,61.50
2023-12-27T08:03:26.973Z,61.60
2023-12-27T08:05:56.911Z,61.90
2023-12-27T08:08:26.725Z,61.70
2023-12-27T08:10:59.162Z,62.60
2023-12-27T08:13:28.973Z,62.60
2023-12-27T08:15:59.237Z,61.90
2023-12-27T08:18:29.175Z,62.40
2023-12-27T08:20:59.828Z,62.70
2023-12-27T08:23:29.667Z,63.20
2023-12-27T08:26:02.127Z,62.70
2023-12-27T08:28:32.017Z,62.80
2023-12-27T08:31:01.945Z,62.40
2023-12-27T08:33:32.172Z,63.50
2023-12-27T08:36:02.416Z,63.90
2023-12-27T08:38:32.833Z,67.30
2023-12-27T08:41:06.422Z,75.80
2023-12-27T08:43:38.468Z,77.00
2023-12-27T08:46:12.267Z,79.00
2023-12-27T08:48:42.189Z,78.30
2023-12-27T08:51:13.258Z,75.70
2023-12-27T08:53:43.099Z,75.80
2023-12-27T08:56:16.182Z,75.20
2023-12-27T08:58:46.040Z,74.70
2023-12-27T09:01:17.587Z,72.90
2023-12-27T09:03:50.097Z,73.10
2023-12-27T09:06:20.152Z,72.70
2023-12-27T09:08:50.594Z,73.50
2023-12-27T09:11:40.255Z,73.40
2023-12-27T09:14:12.520Z,76.00
2023-12-27T09:16:42.298Z,84.70
2023-12-27T09:19:12.355Z,86.70
2023-12-27T09:21:47.381Z,86.20
2023-12-27T09:24:17.825Z,85.90
2023-12-27T09:26:51.136Z,84.10
2023-12-27T09:29:20.954Z,98.90
2023-12-27T09:31:50.859Z,92.10
2023-12-27T09:34:20.867Z,91.50
2023-12-27T09:36:50.763Z,89.60
2023-12-27T09:39:20.640Z,90.00
2023-12-27T09:41:53.219Z,95.80
2023-12-27T09:44:24.007Z,94.30
2023-12-27T09:46:54.453Z,95.10
2023-12-27T09:49:25.727Z,92.10
2023-12-27T09:51:57.022Z,92.20
2023-12-27T09:54:27.237Z,91.30
2023-12-27T09:57:00.523Z,89.70
2023-12-27T09:59:32.461Z,89.50
2023-12-27T10:02:03.706Z,84.60
2023-12-27T10:04:51.705Z,86.10
2023-12-27T10:07:22.925Z,85.90
2023-12-27T10:09:53.465Z,83.30
2023-12-27T10:12:25.970Z,83.10
2023-12-27T10:14:57.221Z,82.10
2023-12-27T10:17:27.187Z,82.10
2023-12-27T10:19:57.339Z,82.50
2023-12-27T10:22:28.220Z,81.00
2023-12-27T10:24:58.790Z,82.30
2023-12-27T10:27:34.185Z,81.70
2023-12-27T10:30:06.097Z,82.20
2023-12-27T10:32:36.208Z,82.00
2023-12-27T10:35:06.340Z,80.40
2023-12-27T10:37:36.216Z,79.80
2023-12-27T10:40:07.185Z,79.70
2023-12-27T10:42:39.633Z,79.10
2023-12-27T10:45:09.812Z,79.20
2023-12-27T10:47:40.202Z,79.60
2023-12-27T10:50:13.566Z,78.30
2023-12-27T10:52:48.520Z,77.40
2023-12-27T10:55:23.793Z,77.40
2023-12-27T10:57:59.518Z,78.30
2023-12-27T11:00:30.157Z,75.70
2023-12-27T11:03:01.844Z,75.50
2023-12-27T11:05:34.097Z,75.30
2023-12-27T11:08:05.151Z,74.80
2023-12-27T11:10:37.985Z,73.90
2023-12-27T11:13:13.161Z,75.10
2023-12-27T11:15:46.498Z,75.20
2023-12-27T11:18:17.044Z,74.60
2023-12-27T11:20:49.078Z,74.10
2023-12-27T11:23:19.002Z,75.00
2023-12-27T11:25:50.082Z,73.90
2023-12-27T11:28:24.505Z,74.80
2023-12-27T11:30:54.413Z,74.50
2023-12-27T11:33:29.147Z,73.10
2023-12-27T11:36:01.371Z,73.90
2023-12-27T11:38:32.645Z,72.20
2023-12-27T11:41:04.950Z,73.10
2023-12-27T11:43:58.397Z,72.30
2023-12-27T11:46:29.432Z,72.50
2023-12-27T11:49:00.908Z,71.20
2023-12-27T11:51:33.834Z,71.20
2023-12-27T11:54:04.518Z,70.80
2023-12-27T11:56:38.468Z,69.80
2023-12-27T11:59:13.395Z,69.50
2023-12-27T12:01:44.911Z,67.90
2023-12-27T12:04:26.265Z,69.20
2023-12-27T12:07:31.583Z,66.90
2023-12-27T12:10:01.410Z,69.60
2023-12-27T12:12:32.417Z,67.30
2023-12-27T12:15:05.357Z,68.00
2023-12-27T12:17:35.336Z,66.60
2023-12-27T12:20:06.848Z,66.60
2023-12-27T12:22:38.141Z,66.50
2023-12-27T12:25:11.724Z,66.50
2023-12-27T12:27:45.645Z,66.50
2023-12-27T12:30:19.672Z,65.90
2023-12-27T12:32:49.746Z,64.70
2023-12-27T12:35:20.179Z,64.30
2023-12-27T12:37:50.148Z,65.50
2023-12-27T12:40:20.359Z,65.20
2023-12-27T12:42:50.305Z,63.40
2023-12-27T12:45:23.013Z,64.40
2023-12-27T12:47:54.347Z,61.80
2023-12-27T12:50:24.494Z,62.70
2023-12-27T12:52:54.370Z,63.10
2023-12-27T12:55:30.059Z,62.60
2023-12-27T12:58:00.445Z,61.60
2023-12-27T13:00:33.817Z,62.60
2023-12-27T13:03:03.789Z,63.20
2023-12-27T13:05:34.041Z,62.50
2023-12-27T13:08:08.732Z,61.60
2023-12-27T13:10:40.576Z,62.00
2023-12-27T13:13:10.576Z,62.10
2023-12-27T13:15:43.075Z,61.50
2023-12-27T13:18:13.056Z,61.70
2023-12-27T13:20:43.016Z,61.30
2023-12-27T13:23:12.836Z,62.10
2023-12-27T13:25:43.533Z,61.90
2023-12-27T13:28:14.492Z,61.90
2023-12-27T13:30:47.272Z,61.40
2023-12-27T13:33:17.410Z,61.40
2023-12-27T13:35:47.401Z,61.50
2023-12-27T13:38:17.219Z,61.40
2023-12-27T13:40:47.074Z,61.30
2023-12-27T13:43:18.143Z,62.20
2023-12-27T13:45:50.733Z,61.60
2023-12-27T13:48:22.442Z,61.30
2023-12-27T13:50:54.282Z,61.90
2023-12-27T13:53:24.120Z,61.20
2023-12-27T13:55:53.953Z,61.80
2023-12-27T13:58:23.799Z,60.80
2023-12-27T14:00:56.622Z,60.20
2023-12-27T14:03:30.961Z,61.00
2023-12-27T14:06:01.145Z,60.50
2023-12-27T14:08:31.083Z,60.10
2023-12-27T14:11:01.127Z,60.40
2023-12-27T14:13:30.946Z,60.40
2023-12-27T14:16:04.942Z,60.60
2023-12-27T14:18:34.894Z,60.40
2023-12-27T14:21:05.026Z,59.50
2023-12-27T14:23:34.837Z,60.10
2023-12-27T14:26:06.325Z,60.00
2023-12-27T14:28:37.364Z,59.60
2023-12-27T14:31:09.910Z,60.60
2023-12-27T14:33:40.231Z,60.80
2023-12-27T14:36:11.355Z,60.80
2023-12-27T14:38:42.815Z,59.20
2023-12-27T14:41:12.949Z,60.20
2023-12-27T14:43:43.649Z,59.70
2023-12-27T14:46:16.140Z,60.10
2023-12-27T14:48:47.395Z,59.30
2023-12-27T14:51:17.372Z,60.60
2023-12-27T14:53:44.925Z,60.10
2023-12-27T14:56:15.669Z,60.20
2023-12-27T14:58:45.648Z,60.20
2023-12-27T15:01:18.089Z,59.80
2023-12-27T15:03:48.023Z,59.40
2023-12-27T15:06:18.002Z,59.90
2023-12-27T15:08:48.789Z,60.00
2023-12-27T15:11:18.803Z,59.70
2023-12-27T15:13:48.601Z,60.00
2023-12-27T15:16:21.440Z,59.70
2023-12-27T15:18:51.421Z,60.20
2023-12-27T15:21:22.388Z,60.50
2023-12-27T15:23:53.245Z,60.40
2023-12-27T15:26:24.191Z,59.20
2023-12-27T15:28:54.496Z,59.50
2023-12-27T15:31:29.740Z,60.20
2023-12-27T15:34:00.810Z,59.40
2023-12-27T15:36:31.163Z,59.60
2023-12-27T15:39:01.730Z,60.00
2023-12-27T15:41:32.098Z,59.60
2023-12-27T15:44:04.210Z,59.90
2023-12-27T15:46:36.878Z,59.60
2023-12-27T15:49:06.965Z,60.10
2023-12-27T15:51:36.751Z,59.90
2023-12-27T15:54:08.488Z,60.10
2023-12-27T15:56:43.210Z,59.50
2023-12-27T15:59:14.384Z,60.10
2023-12-27T16:01:46.778Z,59.10
2023-12-27T16:04:19.006Z,59.70
2023-12-27T16:06:50.213Z,59.90
2023-12-27T16:09:20.469Z,60.00
2023-12-27T16:11:52.417Z,59.80
2023-12-27T16:14:22.257Z,59.10
2023-12-27T16:16:54.725Z,59.50
2023-12-27T16:19:24.920Z,59.70
2023-12-27T16:21:55.105Z,59.60
2023-12-27T16:24:25.225Z,59.80
2023-12-27T16:26:55.062Z,59.50
2023-12-27T16:29:24.839Z,59.60
2023-12-27T16:31:57.245Z,58.70
2023-12-27T16:34:27.245Z,59.10
2023-12-27T16:36:57.926Z,59.80
2023-12-27T16:39:27.781Z,59.70
2023-12-27T16:41:57.577Z,59.10
2023-12-27T16:44:28.144Z,59.40
2023-12-27T16:47:00.688Z,58.90
2023-12-27T16:49:30.783Z,58.80
2023-12-27T16:52:00.662Z,59.00
2023-12-27T16:54:30.660Z,59.10
2023-12-27T16:57:00.496Z,58.70
2023-12-27T16:59:30.269Z,58.70
2023-12-27T17:02:02.913Z,58.60
2023-12-27T17:04:32.967Z,58.20
2023-12-27T17:07:03.196Z,58.80
2023-12-27T17:09:34.556Z,58.60
2023-12-27T17:12:05.018Z,57.90
2023-12-27T17:14:32.304Z,57.60
2023-12-27T17:17:04.706Z,57.70
2023-12-27T17:19:34.617Z,57.30
2023-12-27T17:22:04.445Z,57.60
2023-12-27T17:24:34.519Z,58.40
2023-12-27T17:27:04.483Z,57.10
2023-12-27T17:29:34.619Z,56.50
2023-12-27T17:32:07.677Z,56.50
2023-12-27T17:34:37.646Z,56.30
2023-12-27T17:37:07.828Z,55.70
2023-12-27T17:39:37.835Z,55.30
2023-12-27T17:42:08.503Z,55.00
2023-12-27T17:44:38.478Z,55.10
2023-12-27T17:47:10.935Z,55.10
2023-12-27T17:49:40.912Z,55.00
2023-12-27T17:52:10.879Z,55.10
2023-12-27T17:54:40.811Z,55.10
2023-12-27T17:57:11.206Z,54.60
2023-12-27T17:59:42.124Z,54.00
2023-12-27T18:02:14.620Z,53.40
2023-12-27T18:04:44.706Z,53.10
2023-12-27T18:07:14.692Z,52.40
2023-12-27T18:09:44.970Z,51.90
2023-12-27T18:12:15.796Z,51.60
2023-12-27T18:14:47.496Z,51.00
2023-12-27T18:17:20.106Z,51.00
2023-12-27T18:19:50.193Z,51.80
2023-12-27T18:22:20.161Z,50.90
2023-12-27T18:24:50.021Z,50.70
2023-12-27T18:27:19.870Z,50.40
2023-12-27T18:29:49.669Z,48.90
2023-12-27T18:32:22.268Z,49.20
2023-12-27T18:34:52.160Z,49.90
2023-12-27T18:37:22.047Z,49.20
2023-12-27T18:39:51.893Z,49.50
2023-12-27T18:42:21.792Z,49.20
2023-12-27T18:44:51.671Z,49.20
2023-12-27T18:47:24.152Z,48.00
2023-12-27T18:49:54.098Z,48.00
2023-12-27T18:52:24.075Z,48.10
2023-12-27T18:54:54.671Z,46.90
2023-12-27T18:57:25.959Z,46.60
2023-12-27T18:59:56.035Z,47.40
2023-12-27T19:02:28.446Z,45.70
2023-12-27T19:04:58.275Z,45.90
2023-12-27T19:07:28.162Z,45.00
2023-12-27T19:09:58.171Z,45.70
2023-12-27T19:12:29.483Z,44.80
2023-12-27T19:15:01.128Z,45.20
2023-12-27T19:17:34.954Z,43.30
2023-12-27T19:20:05.182Z,42.10
2023-12-27T19:22:35.129Z,41.80
2023-12-27T19:25:04.974Z,42.90
2023-12-27T19:27:34.832Z,41.50
2023-12-27T19:30:06.448Z,41.60
2023-12-27T19:32:39.203Z,40.20
2023-12-27T19:35:09.961Z,40.70
2023-12-27T19:37:42.396Z,39.70
2023-12-27T19:40:14.464Z,40.10
2023-12-27T19:42:44.804Z,39.00
2023-12-27T19:45:14.688Z,39.10
2023-12-27T19:47:47.637Z,38.30
2023-12-27T19:50:17.641Z,38.70
2023-12-27T19:52:47.425Z,38.50
2023-12-27T19:55:17.611Z,38.30
2023-12-27T19:57:47.434Z,37.20
2023-12-27T20:00:17.632Z,37.00
2023-12-27T20:02:50.142Z,36.60
2023-12-27T20:05:20.287Z,35.90
2023-12-27T20:07:50.091Z,36.00
2023-12-27T20:10:19.909Z,36.30
2023-12-27T20:12:49.870Z,36.30
2023-12-27T20:15:20.447Z,36.10
2023-12-27T20:17:52.966Z,35.60
2023-12-27T20:20:22.974Z,35.50
2023-12-27T20:22:52.983Z,35.90
2023-12-27T20:25:22.951Z,34.70
2023-12-27T20:27:52.958Z,35.90
2023-12-27T20:30:25.667Z,34.70
2023-12-27T20:32:58.267Z,34.20
2023-12-27T20:35:28.212Z,34.30
2023-12-27T20:37:58.303Z,33.80
2023-12-27T20:40:28.232Z,33.20
2023-12-27T20:42:58.107Z,32.40
2023-12-27T20:45:28.154Z,31.70
2023-12-27T20:48:00.816Z,31.20
2023-12-27T20:50:30.799Z,31.30
2023-12-27T20:53:00.665Z,31.20
2023-12-27T20:55:30.473Z,31.30
2023-12-27T20:58:00.532Z,31.20
2023-12-27T21:00:30.653Z,31.40
2023-12-27T21:03:03.160Z,31.30
2023-12-27T21:05:33.172Z,31.30
2023-12-27T21:08:03.654Z,31.20
2023-12-27T21:10:33.560Z,31.30
2023-12-27T21:13:03.567Z,32.20
2023-12-27T21:15:34.781Z,31.20
2023-12-27T21:18:08.250Z,31.20
2023-12-27T21:20:38.229Z,31.20
2023-12-27T21:23:08.074Z,31.30
2023-12-27T21:25:37.871Z,31.30
2023-12-27T21:28:09.139Z,31.30
2023-12-27T21:30:40.749Z,31.10
2023-12-27T21:33:13.457Z,31.30
2023-12-27T21:35:43.619Z,30.80
2023-12-27T21:38:13.458Z,31.30
2023-12-27T21:40:43.263Z,31.30
2023-12-27T21:43:14.514Z,31.30
2023-12-27T21:45:44.342Z,31.10
2023-12-27T21:48:16.863Z,31.30
2023-12-27T21:50:46.697Z,31.30
2023-12-27T21:53:16.579Z,32.20
2023-12-27T21:55:46.373Z,31.40
2023-12-27T21:58:16.191Z,31.30
2023-12-27T22:00:46.066Z,31.30
2023-12-27T22:03:19.802Z,32.50
2023-12-27T22:05:49.638Z,31.60
2023-12-27T22:08:19.963Z,31.30
2023-12-27T22:10:49.754Z,31.30
2023-12-27T22:13:19.573Z,31.90
2023-12-27T22:15:55.751Z,31.40
2023-12-27T22:18:33.443Z,32.40
2023-12-27T22:21:05.530Z,32.60
2023-12-27T22:23:35.463Z,32.00
2023-12-27T22:26:05.829Z,32.90
2023-12-27T22:28:35.634Z,33.40
2023-12-27T22:31:05.535Z,32.80
2023-12-27T22:33:38.133Z,34.20
2023-12-27T22:36:11.009Z,34.70
2023-12-27T22:38:40.853Z,36.40
2023-12-27T22:41:10.621Z,37.90
2023-12-27T22:43:40.447Z,43.80
2023-12-27T22:46:10.225Z,51.50
2023-12-27T22:48:42.683Z,55.00
2023-12-27T22:51:12.560Z,54.90
2023-12-27T22:53:42.496Z,56.90
2023-12-27T22:56:13.091Z,59.40
2023-12-27T22:58:43.059Z,58.30
2023-12-27T23:01:13.248Z,57.60
2023-12-27T23:03:45.799Z,59.70
2023-12-27T23:06:15.787Z,60.60
2023-12-27T23:08:45.658Z,61.30
2023-12-27T23:11:15.451Z,63.60
2023-12-27T23:13:45.250Z,63.90
2023-12-27T23:16:15.090Z,66.30
2023-12-27T23:18:47.896Z,64.90
2023-12-27T23:21:18.267Z,66.30
2023-12-27T23:23:48.030Z,65.50
2023-12-27T23:26:17.825Z,66.20
2023-12-27T23:28:47.621Z,68.60
2023-12-27T23:31:17.572Z,67.60
2023-12-27T23:33:50.163Z,68.20
2023-12-27T23:36:20.069Z,68.40
2023-12-27T23:38:49.948Z,67.70
2023-12-27T23:41:19.793Z,67.00
2023-12-27T23:43:49.599Z,67.40
2023-12-27T23:46:19.389Z,67.20
2023-12-27T23:48:51.987Z,66.20
2023-12-27T23:51:21.940Z,66.20
2023-12-27T23:53:51.853Z,66.30
2023-12-27T23:56:22.458Z,66.10
2023-12-27T23:58:52.526Z,66.10
